sensor_id;sensor_type;location;lat;lon;timestamp;P1;durP1;ratioP1;P2;durP2;ratioP2
40367;SDS011;26075;43.320;21.920;2023-05-10T00:02:26;3.05;;;1.58;;
40367;SDS011;26075;43.320;21.920;2023-05-10T00:07:27;3.90;;;1.92;;
40367;SDS011;26075;43.320;21.920;2023-05-10T00:12:28;3.38;;;1.90;;
40367;SDS011;26075;43.320;21.920;2023-05-10T00:17:29;4.18;;;1.90;;
40367;SDS011;26075;43.320;21.920;2023-05-10T00:22:30;4.53;;;1.58;;
40367;SDS011;26075;43.320;21.920;2023-05-10T00:27:31;2.92;;;1.50;;
40367;SDS011;26075;43.320;21.920;2023-05-10T00:32:32;2.78;;;1.35;;
40367;SDS011;26075;43.320;21.920;2023-05-10T00:37:33;4.20;;;1.50;;
40367;SDS011;26075;43.320;21.920;2023-05-10T00:42:35;3.50;;;1.60;;
40367;SDS011;26075;43.320;21.920;2023-05-10T00:47:36;3.00;;;1.50;;
40367;SDS011;26075;43.320;21.920;2023-05-10T00:52:37;3.05;;;1.33;;
40367;SDS011;26075;43.320;21.920;2023-05-10T00:57:38;3.40;;;1.67;;
40367;SDS011;26075;43.320;21.920;2023-05-10T01:02:39;2.90;;;1.30;;
40367;SDS011;26075;43.320;21.920;2023-05-10T01:07:41;2.50;;;1.10;;
40367;SDS011;26075;43.320;21.920;2023-05-10T01:12:42;3.58;;;1.30;;
40367;SDS011;26075;43.320;21.920;2023-05-10T01:17:44;2.50;;;1.20;;
40367;SDS011;26075;43.320;21.920;2023-05-10T01:38:22;2.83;;;1.33;;
40367;SDS011;26075;43.320;21.920;2023-05-10T01:43:30;2.90;;;1.30;;
40367;SDS011;26075;43.320;21.920;2023-05-10T01:48:33;2.53;;;1.10;;
40367;SDS011;26075;43.320;21.920;2023-05-10T01:53:34;3.60;;;1.00;;
40367;SDS011;26075;43.320;21.920;2023-05-10T01:58:37;3.05;;;1.00;;
40367;SDS011;26075;43.320;21.920;2023-05-10T02:03:40;4.18;;;1.10;;
40367;SDS011;26075;43.320;21.920;2023-05-10T02:08:43;2.45;;;1.08;;
40367;SDS011;26075;43.320;21.920;2023-05-10T02:13:47;2.80;;;1.20;;
40367;SDS011;26075;43.320;21.920;2023-05-10T02:18:49;2.50;;;1.02;;
40367;SDS011;26075;43.320;21.920;2023-05-10T02:23:51;2.70;;;1.10;;
40367;SDS011;26075;43.320;21.920;2023-05-10T02:28:53;2.35;;;1.15;;
40367;SDS011;26075;43.320;21.920;2023-05-10T02:33:55;2.50;;;1.10;;
40367;SDS011;26075;43.320;21.920;2023-05-10T02:38:57;3.78;;;1.20;;
40367;SDS011;26075;43.320;21.920;2023-05-10T02:43:59;3.22;;;1.80;;
40367;SDS011;26075;43.320;21.920;2023-05-10T02:49:02;4.25;;;1.60;;
40367;SDS011;26075;43.320;21.920;2023-05-10T02:54:06;2.63;;;1.50;;
40367;SDS011;26075;43.320;21.920;2023-05-10T02:59:10;2.72;;;1.70;;
40367;SDS011;26075;43.320;21.920;2023-05-10T03:04:11;4.30;;;1.83;;
40367;SDS011;26075;43.320;21.920;2023-05-10T03:09:12;2.92;;;1.58;;
40367;SDS011;26075;43.320;21.920;2023-05-10T03:19:24;3.30;;;2.00;;
40367;SDS011;26075;43.320;21.920;2023-05-10T03:24:27;5.45;;;1.85;;
40367;SDS011;26075;43.320;21.920;2023-05-10T03:29:28;5.07;;;2.05;;
40367;SDS011;26075;43.320;21.920;2023-05-10T03:34:30;5.25;;;2.30;;
40367;SDS011;26075;43.320;21.920;2023-05-10T03:39:33;3.38;;;1.98;;
40367;SDS011;26075;43.320;21.920;2023-05-10T03:44:34;3.50;;;2.17;;
40367;SDS011;26075;43.320;21.920;2023-05-10T03:49:35;3.90;;;2.58;;
40367;SDS011;26075;43.320;21.920;2023-05-10T03:54:36;5.50;;;2.75;;
40367;SDS011;26075;43.320;21.920;2023-05-10T03:59:37;5.38;;;2.70;;
40367;SDS011;26075;43.320;21.920;2023-05-10T04:04:38;3.55;;;2.65;;
40367;SDS011;26075;43.320;21.920;2023-05-10T04:09:40;4.82;;;2.78;;
40367;SDS011;26075;43.320;21.920;2023-05-10T04:14:41;3.97;;;2.72;;
40367;SDS011;26075;43.320;21.920;2023-05-10T04:19:42;4.38;;;2.95;;
40367;SDS011;26075;43.320;21.920;2023-05-10T04:24:43;3.95;;;3.10;;
40367;SDS011;26075;43.320;21.920;2023-05-10T04:29:44;3.70;;;2.50;;
40367;SDS011;26075;43.320;21.920;2023-05-10T04:34:45;3.55;;;2.88;;
40367;SDS011;26075;43.320;21.920;2023-05-10T04:39:47;5.40;;;3.00;;
40367;SDS011;26075;43.320;21.920;2023-05-10T04:44:48;4.30;;;2.92;;
40367;SDS011;26075;43.320;21.920;2023-05-10T04:49:49;3.80;;;2.80;;
40367;SDS011;26075;43.320;21.920;2023-05-10T04:54:50;4.35;;;3.05;;
40367;SDS011;26075;43.320;21.920;2023-05-10T04:59:51;4.85;;;3.05;;
40367;SDS011;26075;43.320;21.920;2023-05-10T05:04:52;4.80;;;3.33;;
40367;SDS011;26075;43.320;21.920;2023-05-10T05:09:53;4.45;;;2.92;;
40367;SDS011;26075;43.320;21.920;2023-05-10T05:14:54;4.60;;;3.08;;
40367;SDS011;26075;43.320;21.920;2023-05-10T05:19:56;3.97;;;3.10;;
40367;SDS011;26075;43.320;21.920;2023-05-10T05:24:57;4.78;;;3.40;;
40367;SDS011;26075;43.320;21.920;2023-05-10T05:29:58;4.43;;;3.42;;
40367;SDS011;26075;43.320;21.920;2023-05-10T05:34:59;5.68;;;3.22;;
40367;SDS011;26075;43.320;21.920;2023-05-10T05:40:00;5.22;;;3.33;;
40367;SDS011;26075;43.320;21.920;2023-05-10T05:45:02;4.43;;;2.92;;
40367;SDS011;26075;43.320;21.920;2023-05-10T05:50:03;5.00;;;3.67;;
40367;SDS011;26075;43.320;21.920;2023-05-10T05:55:04;6.40;;;3.03;;
40367;SDS011;26075;43.320;21.920;2023-05-10T06:00:05;5.00;;;3.38;;
40367;SDS011;26075;43.320;21.920;2023-05-10T06:05:07;4.93;;;3.13;;
40367;SDS011;26075;43.320;21.920;2023-05-10T06:10:09;6.20;;;3.80;;
40367;SDS011;26075;43.320;21.920;2023-05-10T06:15:10;4.43;;;3.15;;
40367;SDS011;26075;43.320;21.920;2023-05-10T06:20:11;7.32;;;3.58;;
40367;SDS011;26075;43.320;21.920;2023-05-10T06:25:12;5.18;;;3.58;;
40367;SDS011;26075;43.320;21.920;2023-05-10T06:30:14;6.00;;;3.70;;
40367;SDS011;26075;43.320;21.920;2023-05-10T06:35:15;4.88;;;3.35;;
40367;SDS011;26075;43.320;21.920;2023-05-10T06:40:17;5.53;;;3.42;;
40367;SDS011;26075;43.320;21.920;2023-05-10T06:45:18;6.88;;;3.83;;
40367;SDS011;26075;43.320;21.920;2023-05-10T06:50:19;8.70;;;4.68;;
40367;SDS011;26075;43.320;21.920;2023-05-10T06:55:20;5.97;;;3.90;;
40367;SDS011;26075;43.320;21.920;2023-05-10T07:00:21;8.43;;;3.95;;
40367;SDS011;26075;43.320;21.920;2023-05-10T07:05:22;6.18;;;3.88;;
40367;SDS011;26075;43.320;21.920;2023-05-10T07:10:23;6.25;;;3.85;;
40367;SDS011;26075;43.320;21.920;2023-05-10T07:15:25;8.52;;;4.13;;
40367;SDS011;26075;43.320;21.920;2023-05-10T07:20:26;7.32;;;4.25;;
40367;SDS011;26075;43.320;21.920;2023-05-10T07:25:27;9.25;;;3.85;;
40367;SDS011;26075;43.320;21.920;2023-05-10T07:30:28;8.50;;;4.03;;
40367;SDS011;26075;43.320;21.920;2023-05-10T07:35:29;5.75;;;4.20;;
40367;SDS011;26075;43.320;21.920;2023-05-10T07:40:31;9.70;;;4.30;;
40367;SDS011;26075;43.320;21.920;2023-05-10T07:45:32;8.23;;;4.13;;
40367;SDS011;26075;43.320;21.920;2023-05-10T07:50:34;9.10;;;4.75;;
40367;SDS011;26075;43.320;21.920;2023-05-10T07:55:35;7.65;;;4.28;;
40367;SDS011;26075;43.320;21.920;2023-05-10T08:00:37;8.25;;;5.03;;
40367;SDS011;26075;43.320;21.920;2023-05-10T08:05:39;9.32;;;4.18;;
40367;SDS011;26075;43.320;21.920;2023-05-10T08:10:40;6.78;;;4.50;;
40367;SDS011;26075;43.320;21.920;2023-05-10T08:15:41;8.43;;;4.40;;
40367;SDS011;26075;43.320;21.920;2023-05-10T08:20:43;7.05;;;4.63;;
40367;SDS011;26075;43.320;21.920;2023-05-10T08:25:44;8.88;;;4.45;;
40367;SDS011;26075;43.320;21.920;2023-05-10T08:30:45;8.90;;;4.88;;
40367;SDS011;26075;43.320;21.920;2023-05-10T08:35:46;9.07;;;5.03;;
40367;SDS011;26075;43.320;21.920;2023-05-10T08:40:47;5.47;;;4.13;;
40367;SDS011;26075;43.320;21.920;2023-05-10T08:45:50;7.32;;;4.32;;
40367;SDS011;26075;43.320;21.920;2023-05-10T08:50:54;6.90;;;4.57;;
40367;SDS011;26075;43.320;21.920;2023-05-10T08:55:56;6.95;;;4.60;;
40367;SDS011;26075;43.320;21.920;2023-05-10T09:00:57;9.73;;;5.07;;
40367;SDS011;26075;43.320;21.920;2023-05-10T09:06:00;5.88;;;4.72;;
40367;SDS011;26075;43.320;21.920;2023-05-10T09:11:01;8.93;;;4.90;;
40367;SDS011;26075;43.320;21.920;2023-05-10T09:16:03;8.05;;;4.20;;
40367;SDS011;26075;43.320;21.920;2023-05-10T09:21:04;8.10;;;5.50;;
40367;SDS011;26075;43.320;21.920;2023-05-10T09:26:05;8.45;;;5.00;;
40367;SDS011;26075;43.320;21.920;2023-05-10T09:31:06;8.70;;;5.00;;
40367;SDS011;26075;43.320;21.920;2023-05-10T09:36:07;7.93;;;4.95;;
40367;SDS011;26075;43.320;21.920;2023-05-10T09:41:15;8.68;;;5.65;;
40367;SDS011;26075;43.320;21.920;2023-05-10T09:46:16;9.75;;;5.07;;
40367;SDS011;26075;43.320;21.920;2023-05-10T09:51:21;8.25;;;5.50;;
40367;SDS011;26075;43.320;21.920;2023-05-10T09:56:36;8.63;;;4.60;;
40367;SDS011;26075;43.320;21.920;2023-05-10T10:01:39;8.40;;;5.63;;
40367;SDS011;26075;43.320;21.920;2023-05-10T10:06:41;6.47;;;4.00;;
40367;SDS011;26075;43.320;21.920;2023-05-10T10:11:42;5.18;;;3.90;;
40367;SDS011;26075;43.320;21.920;2023-05-10T10:16:43;6.30;;;4.78;;
40367;SDS011;26075;43.320;21.920;2023-05-10T10:21:44;5.40;;;3.88;;
40367;SDS011;26075;43.320;21.920;2023-05-10T10:26:46;5.32;;;3.60;;
40367;SDS011;26075;43.320;21.920;2023-05-10T10:31:54;6.97;;;3.75;;
40367;SDS011;26075;43.320;21.920;2023-05-10T10:36:57;6.15;;;4.28;;
40367;SDS011;26075;43.320;21.920;2023-05-10T10:41:58;9.95;;;4.47;;
40367;SDS011;26075;43.320;21.920;2023-05-10T10:52:22;9.90;;;5.50;;
40367;SDS011;26075;43.320;21.920;2023-05-10T10:57:27;9.38;;;3.60;;
40367;SDS011;26075;43.320;21.920;2023-05-10T11:02:49;8.68;;;4.25;;
40367;SDS011;26075;43.320;21.920;2023-05-10T11:08:00;6.60;;;4.10;;
40367;SDS011;26075;43.320;21.920;2023-05-10T11:13:08;9.15;;;4.15;;
40367;SDS011;26075;43.320;21.920;2023-05-10T11:18:20;10.43;;;5.40;;
40367;SDS011;26075;43.320;21.920;2023-05-10T11:23:21;8.50;;;4.03;;
40367;SDS011;26075;43.320;21.920;2023-05-10T11:28:22;12.15;;;5.75;;
40367;SDS011;26075;43.320;21.920;2023-05-10T11:33:23;9.55;;;4.20;;
40367;SDS011;26075;43.320;21.920;2023-05-10T11:38:24;7.18;;;3.60;;
40367;SDS011;26075;43.320;21.920;2023-05-10T11:43:25;6.85;;;4.40;;
40367;SDS011;26075;43.320;21.920;2023-05-10T11:48:30;7.43;;;4.68;;
40367;SDS011;26075;43.320;21.920;2023-05-10T11:53:32;6.25;;;4.85;;
40367;SDS011;26075;43.320;21.920;2023-05-10T11:58:33;14.05;;;5.35;;
40367;SDS011;26075;43.320;21.920;2023-05-10T12:03:34;6.07;;;4.88;;
40367;SDS011;26075;43.320;21.920;2023-05-10T12:08:36;10.32;;;5.50;;
40367;SDS011;26075;43.320;21.920;2023-05-10T12:13:41;10.82;;;6.25;;
40367;SDS011;26075;43.320;21.920;2023-05-10T12:23:45;8.50;;;5.20;;
40367;SDS011;26075;43.320;21.920;2023-05-10T12:28:46;8.55;;;5.25;;
40367;SDS011;26075;43.320;21.920;2023-05-10T12:33:48;7.57;;;5.30;;
40367;SDS011;26075;43.320;21.920;2023-05-10T12:38:49;13.85;;;7.50;;
40367;SDS011;26075;43.320;21.920;2023-05-10T12:43:52;10.63;;;6.82;;
40367;SDS011;26075;43.320;21.920;2023-05-10T12:48:53;7.70;;;5.30;;
40367;SDS011;26075;43.320;21.920;2023-05-10T12:53:55;9.82;;;5.22;;
40367;SDS011;26075;43.320;21.920;2023-05-10T12:58:56;8.30;;;5.22;;
40367;SDS011;26075;43.320;21.920;2023-05-10T13:03:57;8.20;;;5.35;;
40367;SDS011;26075;43.320;21.920;2023-05-10T13:09:00;7.63;;;5.22;;
40367;SDS011;26075;43.320;21.920;2023-05-10T13:14:01;7.50;;;4.97;;
40367;SDS011;26075;43.320;21.920;2023-05-10T13:19:03;10.15;;;5.38;;
40367;SDS011;26075;43.320;21.920;2023-05-10T13:24:04;10.50;;;5.60;;
40367;SDS011;26075;43.320;21.920;2023-05-10T13:29:05;7.45;;;5.18;;
40367;SDS011;26075;43.320;21.920;2023-05-10T13:34:07;10.27;;;5.78;;
40367;SDS011;26075;43.320;21.920;2023-05-10T13:39:08;8.50;;;4.63;;
40367;SDS011;26075;43.320;21.920;2023-05-10T13:44:11;9.35;;;5.22;;
40367;SDS011;26075;43.320;21.920;2023-05-10T13:49:12;9.65;;;5.72;;
40367;SDS011;26075;43.320;21.920;2023-05-10T13:54:13;9.23;;;6.13;;
40367;SDS011;26075;43.320;21.920;2023-05-10T13:59:14;8.35;;;5.80;;
40367;SDS011;26075;43.320;21.920;2023-05-10T14:04:15;7.72;;;6.10;;
40367;SDS011;26075;43.320;21.920;2023-05-10T14:09:17;11.30;;;6.28;;
40367;SDS011;26075;43.320;21.920;2023-05-10T14:14:18;10.02;;;5.95;;
40367;SDS011;26075;43.320;21.920;2023-05-10T14:19:19;16.23;;;6.60;;
40367;SDS011;26075;43.320;21.920;2023-05-10T14:24:20;11.90;;;6.35;;
40367;SDS011;26075;43.320;21.920;2023-05-10T14:29:21;9.43;;;6.40;;
40367;SDS011;26075;43.320;21.920;2023-05-10T14:34:22;11.23;;;6.45;;
40367;SDS011;26075;43.320;21.920;2023-05-10T14:39:23;9.38;;;6.18;;
40367;SDS011;26075;43.320;21.920;2023-05-10T14:44:25;12.43;;;7.15;;
40367;SDS011;26075;43.320;21.920;2023-05-10T14:49:26;10.10;;;7.97;;
40367;SDS011;26075;43.320;21.920;2023-05-10T14:54:28;13.70;;;7.65;;
40367;SDS011;26075;43.320;21.920;2023-05-10T14:59:30;11.77;;;7.65;;
40367;SDS011;26075;43.320;21.920;2023-05-10T15:04:31;10.93;;;6.88;;
40367;SDS011;26075;43.320;21.920;2023-05-10T15:09:32;11.05;;;6.43;;
40367;SDS011;26075;43.320;21.920;2023-05-10T15:14:33;10.50;;;5.85;;
40367;SDS011;26075;43.320;21.920;2023-05-10T15:19:36;16.33;;;7.22;;
40367;SDS011;26075;43.320;21.920;2023-05-10T15:24:37;10.40;;;7.75;;
40367;SDS011;26075;43.320;21.920;2023-05-10T15:29:38;10.75;;;7.70;;
40367;SDS011;26075;43.320;21.920;2023-05-10T15:34:39;12.68;;;7.00;;
40367;SDS011;26075;43.320;21.920;2023-05-10T15:39:41;13.98;;;6.07;;
40367;SDS011;26075;43.320;21.920;2023-05-10T15:44:42;10.55;;;7.05;;
40367;SDS011;26075;43.320;21.920;2023-05-10T15:49:44;13.80;;;7.75;;
40367;SDS011;26075;43.320;21.920;2023-05-10T15:54:45;10.80;;;6.78;;
40367;SDS011;26075;43.320;21.920;2023-05-10T15:59:46;11.55;;;6.97;;
40367;SDS011;26075;43.320;21.920;2023-05-10T16:04:48;10.13;;;6.93;;
40367;SDS011;26075;43.320;21.920;2023-05-10T16:09:49;12.55;;;6.70;;
40367;SDS011;26075;43.320;21.920;2023-05-10T16:14:50;11.02;;;6.45;;
40367;SDS011;26075;43.320;21.920;2023-05-10T16:19:51;12.05;;;8.18;;
40367;SDS011;26075;43.320;21.920;2023-05-10T16:24:52;11.23;;;5.95;;
40367;SDS011;26075;43.320;21.920;2023-05-10T16:29:53;9.10;;;5.63;;
40367;SDS011;26075;43.320;21.920;2023-05-10T16:34:54;7.55;;;5.68;;
40367;SDS011;26075;43.320;21.920;2023-05-10T16:39:56;11.82;;;7.13;;
40367;SDS011;26075;43.320;21.920;2023-05-10T16:44:57;12.07;;;7.50;;
40367;SDS011;26075;43.320;21.920;2023-05-10T16:50:06;14.02;;;8.98;;
40367;SDS011;26075;43.320;21.920;2023-05-10T16:55:07;12.65;;;8.15;;
40367;SDS011;26075;43.320;21.920;2023-05-10T17:00:09;24.13;;;14.07;;
40367;SDS011;26075;43.320;21.920;2023-05-10T17:05:11;21.98;;;13.43;;
40367;SDS011;26075;43.320;21.920;2023-05-10T17:10:12;34.28;;;19.17;;
40367;SDS011;26075;43.320;21.920;2023-05-10T17:15:13;15.57;;;10.15;;
40367;SDS011;26075;43.320;21.920;2023-05-10T17:20:15;18.25;;;9.60;;
40367;SDS011;26075;43.320;21.920;2023-05-10T17:25:16;15.98;;;10.07;;
40367;SDS011;26075;43.320;21.920;2023-05-10T17:30:17;15.90;;;8.65;;
40367;SDS011;26075;43.320;21.920;2023-05-10T17:35:25;10.50;;;6.85;;
40367;SDS011;26075;43.320;21.920;2023-05-10T17:40:26;11.82;;;8.18;;
40367;SDS011;26075;43.320;21.920;2023-05-10T17:45:27;13.43;;;8.02;;
40367;SDS011;26075;43.320;21.920;2023-05-10T17:50:28;22.60;;;9.15;;
40367;SDS011;26075;43.320;21.920;2023-05-10T17:55:30;14.32;;;7.80;;
40367;SDS011;26075;43.320;21.920;2023-05-10T18:00:32;14.82;;;9.30;;
40367;SDS011;26075;43.320;21.920;2023-05-10T18:05:34;11.82;;;7.30;;
40367;SDS011;26075;43.320;21.920;2023-05-10T18:10:36;30.52;;;19.38;;
40367;SDS011;26075;43.320;21.920;2023-05-10T18:15:37;25.10;;;14.70;;
40367;SDS011;26075;43.320;21.920;2023-05-10T18:20:38;24.10;;;16.35;;
40367;SDS011;26075;43.320;21.920;2023-05-10T18:25:40;18.08;;;11.10;;
40367;SDS011;26075;43.320;21.920;2023-05-10T18:30:41;17.55;;;10.50;;
40367;SDS011;26075;43.320;21.920;2023-05-10T18:35:42;13.68;;;10.05;;
40367;SDS011;26075;43.320;21.920;2023-05-10T18:40:43;8.90;;;6.35;;
40367;SDS011;26075;43.320;21.920;2023-05-10T18:45:44;8.13;;;5.30;;
40367;SDS011;26075;43.320;21.920;2023-05-10T18:50:45;13.18;;;6.38;;
40367;SDS011;26075;43.320;21.920;2023-05-10T18:55:53;12.52;;;5.70;;
40367;SDS011;26075;43.320;21.920;2023-05-10T19:00:56;9.15;;;6.05;;
40367;SDS011;26075;43.320;21.920;2023-05-10T19:05:57;11.35;;;6.25;;
40367;SDS011;26075;43.320;21.920;2023-05-10T19:10:59;12.13;;;6.85;;
40367;SDS011;26075;43.320;21.920;2023-05-10T19:16:09;10.00;;;6.65;;
40367;SDS011;26075;43.320;21.920;2023-05-10T19:21:11;8.40;;;6.28;;
40367;SDS011;26075;43.320;21.920;2023-05-10T19:26:12;10.00;;;7.25;;
40367;SDS011;26075;43.320;21.920;2023-05-10T19:31:13;12.02;;;6.93;;
40367;SDS011;26075;43.320;21.920;2023-05-10T19:36:14;10.27;;;6.10;;
40367;SDS011;26075;43.320;21.920;2023-05-10T19:41:15;10.43;;;6.97;;
40367;SDS011;26075;43.320;21.920;2023-05-10T19:46:19;10.15;;;6.97;;
40367;SDS011;26075;43.320;21.920;2023-05-10T19:51:20;10.93;;;5.90;;
40367;SDS011;26075;43.320;21.920;2023-05-10T19:56:21;11.95;;;6.20;;
40367;SDS011;26075;43.320;21.920;2023-05-10T20:01:22;7.90;;;5.97;;
40367;SDS011;26075;43.320;21.920;2023-05-10T20:06:23;10.15;;;6.18;;
40367;SDS011;26075;43.320;21.920;2023-05-10T20:11:25;10.85;;;7.40;;
40367;SDS011;26075;43.320;21.920;2023-05-10T20:16:26;12.65;;;8.20;;
40367;SDS011;26075;43.320;21.920;2023-05-10T20:21:28;9.63;;;6.78;;
40367;SDS011;26075;43.320;21.920;2023-05-10T20:26:29;9.30;;;6.65;;
40367;SDS011;26075;43.320;21.920;2023-05-10T20:31:30;13.18;;;7.15;;
40367;SDS011;26075;43.320;21.920;2023-05-10T20:36:31;7.93;;;5.47;;
40367;SDS011;26075;43.320;21.920;2023-05-10T20:41:32;10.48;;;6.45;;
40367;SDS011;26075;43.320;21.920;2023-05-10T20:46:33;7.78;;;6.22;;
40367;SDS011;26075;43.320;21.920;2023-05-10T20:51:34;8.60;;;6.05;;
40367;SDS011;26075;43.320;21.920;2023-05-10T20:56:35;9.25;;;6.43;;
40367;SDS011;26075;43.320;21.920;2023-05-10T21:01:37;10.10;;;6.60;;
40367;SDS011;26075;43.320;21.920;2023-05-10T21:06:38;10.60;;;7.80;;
40367;SDS011;26075;43.320;21.920;2023-05-10T21:11:39;11.75;;;6.53;;
40367;SDS011;26075;43.320;21.920;2023-05-10T21:16:40;9.80;;;7.22;;
40367;SDS011;26075;43.320;21.920;2023-05-10T21:21:41;11.15;;;6.70;;
40367;SDS011;26075;43.320;21.920;2023-05-10T21:26:42;9.75;;;7.07;;
40367;SDS011;26075;43.320;21.920;2023-05-10T21:31:43;8.32;;;6.88;;
40367;SDS011;26075;43.320;21.920;2023-05-10T21:36:44;11.18;;;6.13;;
40367;SDS011;26075;43.320;21.920;2023-05-10T21:41:46;7.78;;;5.85;;
40367;SDS011;26075;43.320;21.920;2023-05-10T21:46:47;10.40;;;5.32;;
40367;SDS011;26075;43.320;21.920;2023-05-10T21:51:48;9.95;;;5.82;;
40367;SDS011;26075;43.320;21.920;2023-05-10T21:56:49;7.30;;;5.50;;
40367;SDS011;26075;43.320;21.920;2023-05-10T22:01:50;11.88;;;5.28;;
40367;SDS011;26075;43.320;21.920;2023-05-10T22:06:51;9.93;;;5.30;;
40367;SDS011;26075;43.320;21.920;2023-05-10T22:11:52;8.77;;;5.15;;
40367;SDS011;26075;43.320;21.920;2023-05-10T22:16:53;9.57;;;4.95;;
40367;SDS011;26075;43.320;21.920;2023-05-10T22:21:56;10.23;;;5.95;;
40367;SDS011;26075;43.320;21.920;2023-05-10T22:26:57;8.48;;;5.35;;
40367;SDS011;26075;43.320;21.920;2023-05-10T22:31:58;8.38;;;5.60;;
40367;SDS011;26075;43.320;21.920;2023-05-10T22:42:05;11.73;;;6.68;;
40367;SDS011;26075;43.320;21.920;2023-05-10T22:47:06;9.75;;;6.03;;
40367;SDS011;26075;43.320;21.920;2023-05-10T22:52:08;10.00;;;5.85;;
40367;SDS011;26075;43.320;21.920;2023-05-10T22:57:09;9.05;;;6.05;;
40367;SDS011;26075;43.320;21.920;2023-05-10T23:02:11;9.57;;;6.05;;
40367;SDS011;26075;43.320;21.920;2023-05-10T23:07:13;10.32;;;6.38;;
40367;SDS011;26075;43.320;21.920;2023-05-10T23:12:14;7.93;;;6.55;;
40367;SDS011;26075;43.320;21.920;2023-05-10T23:17:15;9.15;;;6.18;;
40367;SDS011;26075;43.320;21.920;2023-05-10T23:22:17;11.60;;;6.32;;
40367;SDS011;26075;43.320;21.920;2023-05-10T23:27:18;9.13;;;5.68;;
40367;SDS011;26075;43.320;21.920;2023-05-10T23:32:19;7.80;;;6.00;;
40367;SDS011;26075;43.320;21.920;2023-05-10T23:37:20;9.00;;;6.70;;
40367;SDS011;26075;43.320;21.920;2023-05-10T23:42:21;10.57;;;6.63;;
40367;SDS011;26075;43.320;21.920;2023-05-10T23:47:22;10.85;;;6.72;;
40367;SDS011;26075;43.320;21.920;2023-05-10T23:52:23;11.38;;;6.65;;
40367;SDS011;26075;43.320;21.920;2023-05-10T23:57:24;9.85;;;6.75;;
